METAR AND TAF INFORMATION
METAR FOR LEVS
ADDS - METARS form results

(0537 UTC 21 April 2021)
Data provider http://aviationweather.gov/metar/data/
 
METAR text: LEVS 210530Z 35003KT 320V020 CAVOK 10/07 Q1011
Conditions at: LEVS (MADRID/CUATRO VI, ES) observed 0530 UTC 21 April 2021
Temperature: 10.0°C (50°F)
Dewpoint: 7.0°C (45°F) [RH = 82%]
Pressure (altimeter): 29.85 inches Hg (1011.0 mb)
Winds: from the N (350 degrees) at 3 MPH (3 knots; 1.5 m/s)
Visibility: 6 or more miles (10+ km)
Ceiling: ceiling and visibility are OK
Clouds: unknown
Weather: no significant weather observed at this time

METAR text: LEVS 210500Z VRB01KT CAVOK 10/07 Q1011
Conditions at: LEVS (MADRID/CUATRO VI, ES) observed 0500 UTC 21 April 2021
Temperature: 10.0°C (50°F)
Dewpoint: 7.0°C (45°F) [RH = 82%]
Pressure (altimeter): 29.85 inches Hg (1011.0 mb)
Winds: variable direction winds at 1 MPH (1 knots; 0.5 m/s)
Visibility: 6 or more miles (10+ km)
Ceiling: ceiling and visibility are OK
Clouds: unknown
Weather: no significant weather observed at this time

Forecast for: LEVS (MADRID/CUATRO VI, ES)
Text: TAF LEVS 210500Z 2106/2206 VRB04KT 9999 SCT050 TX19/2115Z TN09/2106Z
Forecast period: 0600 to 1000 UTC 21 April 2021
Forecast type: FROM: standard forecast or significant change
Winds: variable direction winds at 5 MPH (4 knots; 2.1 m/s)
Visibility: 6 or more miles (10+ km)
Ceiling: at least 12,000 feet AGL
Clouds: scattered clouds at 5000 feet AGL
Weather: no significant weather forecast for this period
Text: BECMG 2110/2111 23010KT
Forecast period: 1000 UTC 21 April 2021 to 0600 UTC 22 April 2021
Forecast type: BECOMING: Conditions expected to become as follows by 1100 UTC 21 April 2021
Winds: from the SW (230 degrees) at 12 MPH (10 knots; 5.1 m/s)
Visibility: 6 or more miles (10+ km)
Ceiling: at least 12,000 feet AGL
Clouds: scattered clouds at 5000 feet AGL
Weather: no significant weather forecast for this period
Text: PROB40
Forecast period: 1300 to 1900 UTC 21 April 2021
Forecast type: TEMPORARY: The following changes expected for less than half the time period
Visibility: missing
Ceiling: at least 12,000 feet AGL
Clouds: scattered clouds at 3000 feet AGL
Weather: SHRA  (rain showers)
Text: TEMPO 2113/2119 SHRA SCT030TCU
Forecast period: 1300 to 1800 UTC 21 April 2021
Forecast type: TEMPORARY: The following changes expected for less than half the time period
Visibility: missing
Ceiling: at least 12,000 feet AGL
Clouds: scattered clouds at 3000 feet AGL
Weather: no significant weather forecast for this period
Text: PROB30
Forecast period: 0000 to 0600 UTC 22 April 2021
Forecast type: TEMPORARY: The following changes expected for less than half the time period
Visibility: 2.49 miles (4.01 km)
Ceiling: 1400 feet AGL
Clouds: broken clouds at 1400 feet AGL
scattered clouds at 2500 feet AGL
overcast cloud deck at 4500 feet AGL
Weather: RA SHRA  (moderate rain, rain showers)

 AIRPORT MAP

 RUNWAY INFORMATION

 AIRPORT FREQUENCIES

 AIRPORT NEAR NAVIGATION AIDS